Terminal Aerodrome Forecast
Issued by NWS Upton, NY

Current Version | Previous Version | Text Only | Print | Product List | Glossary On
Versions: 1 2 3 4 5 6 7 8 9 10 11 12 13 14 15 16 17 18 19 20 21 22 23 24 25 26 27 28 29
000
FTUS41 KOKX 281128
TAFBDR
TAF
KBDR 281128Z 2812/2912 VRB04KT P6SM BKN012
     FM281500 22011KT P6SM FEW020 BKN050
      TEMPO 2815/2816 BKN020
     FM281900 20012G18KT P6SM SCT050 BKN250
     FM290100 26007KT P6SM FEW100
     FM290400 VRB05KT P6SM BKN250=

USA.gov is the U.S. government's official web portal to all federal, state and local government web resources and services.